Time;durP1;ratioP1;P1;durP2;ratioP2;P2;SDS_P1;SDS_P2;PMS_P1;PMS_P2;Temp;Humidity;BMP_temperature;BMP_pressure;BME280_temperature;BME280_humidity;BME280_pressure;Samples;Min_cycle;Max_cycle;Signal;HPM_P1;HPM_P2
2022/06/26 00:00:08;;;;;;;11.45;10.20;;;18.50;99.90;;;;;;5030431;28;20033;-72
2022/06/26 00:02:34;;;;;;;12.13;11.02;;;18.50;99.90;;;;;;5030866;28;20026;-72
2022/06/26 00:05:00;;;;;;;12.60;11.40;;;18.50;99.90;;;;;;5030176;28;20437;-72
2022/06/26 00:07:26;;;;;;;13.57;11.15;;;18.50;99.90;;;;;;5030025;28;20443;-73
2022/06/26 00:09:51;;;;;;;12.68;11.40;;;18.50;99.90;;;;;;5030927;28;20378;-72
2022/06/26 00:12:17;;;;;;;12.07;10.85;;;18.50;99.90;;;;;;5029990;28;20104;-73
2022/06/26 00:14:42;;;;;;;12.50;11.35;;;18.50;99.90;;;;;;5030364;28;20028;-73
2022/06/26 00:17:08;;;;;;;11.70;10.68;;;18.50;99.90;;;;;;5029935;28;20042;-72
2022/06/26 00:19:34;;;;;;;12.45;11.35;;;18.50;99.90;;;;;;5030708;28;20029;-73
2022/06/26 00:22:05;;;;;;;13.02;11.82;;;18.50;99.90;;;;;;5029905;28;20044;-73
2022/06/26 00:24:31;;;;;;;13.52;12.23;;;18.50;99.90;;;;;;5030348;28;20025;-73
2022/06/26 00:26:57;;;;;;;15.30;13.75;;;18.60;99.90;;;;;;5030669;28;20601;-73
2022/06/26 00:29:22;;;;;;;13.43;12.23;;;18.20;99.90;;;;;;5029681;28;20041;-72
2022/06/26 00:31:48;;;;;;;14.15;12.85;;;18.40;99.90;;;;;;5030138;28;20068;-72
2022/06/26 00:34:13;;;;;;;15.25;12.85;;;18.40;99.90;;;;;;5029277;28;20105;-72
2022/06/26 00:36:39;;;;;;;14.85;13.35;;;18.40;99.90;;;;;;5029799;28;20112;-72
2022/06/26 00:39:04;;;;;;;15.57;13.73;;;19.40;99.90;;;;;;5029865;28;20269;-72
2022/06/26 00:41:30;;;;;;;16.40;14.82;;;18.40;99.90;;;;;;5029888;28;20517;-73
2022/06/26 00:43:55;;;;;;;14.13;12.93;;;18.40;99.90;;;;;;5028987;28;20025;-72
2022/06/26 00:46:24;;;;;;;16.17;14.82;;;18.40;99.90;;;;;;5029412;28;20017;-72
2022/06/26 00:48:50;;;;;;;15.13;13.48;;;18.40;99.90;;;;;;5030199;28;20082;-72
2022/06/26 00:51:16;;;;;;;16.23;14.68;;;18.50;99.90;;;;;;5028993;28;20144;-72
2022/06/26 00:53:42;;;;;;;14.70;13.40;;;18.40;99.90;;;;;;5030002;28;20182;-72
2022/06/26 00:56:08;;;;;;;15.32;13.93;;;18.40;99.90;;;;;;5029455;28;20032;-72
2022/06/26 00:58:34;;;;;;;15.48;14.18;;;18.30;99.90;;;;;;5029896;28;20091;-72
2022/06/26 01:00:59;;;;;;;15.48;14.18;;;18.40;99.90;;;;;;5029594;28;20112;-72
2022/06/26 01:03:25;;;;;;;16.00;14.48;;;18.40;99.90;;;;;;5029757;28;20378;-72
2022/06/26 01:05:52;;;;;;;16.88;15.30;;;18.40;99.90;;;;;;5029068;28;20680;-72
2022/06/26 01:08:17;;;;;;;16.02;14.55;;;18.30;99.90;;;;;;5029493;28;20022;-72
2022/06/26 01:10:46;;;;;;;16.67;15.18;;;18.30;99.90;;;;;;5029762;28;20108;-72
2022/06/26 01:13:12;;;;;;;16.65;15.25;;;18.40;99.90;;;;;;5029553;28;20029;-72
2022/06/26 01:15:39;;;;;;;16.45;14.85;;;18.30;99.90;;;;;;5029672;28;20491;-72
2022/06/26 01:18:05;;;;;;;15.85;14.35;;;18.40;99.90;;;;;;5029579;28;20505;-72
2022/06/26 01:20:30;;;;;;;16.38;14.98;;;18.30;99.90;;;;;;5029215;28;20029;-72
2022/06/26 01:22:59;;;;;;;16.10;14.70;;;18.30;99.90;;;;;;5028672;28;20033;-72
2022/06/26 01:25:24;;;;;;;16.92;15.45;;;20.60;99.90;;;;;;5029696;28;20080;-72
2022/06/26 01:27:50;;;;;;;18.00;16.35;;;18.30;99.90;;;;;;5032384;28;20434;-72
2022/06/26 01:30:15;;;;;;;18.67;15.95;;;18.40;99.90;;;;;;5033222;28;20728;-72
2022/06/26 01:32:42;;;;;;;16.75;15.35;;;18.30;99.90;;;;;;5033558;28;20513;-72
2022/06/26 01:35:08;;;;;;;17.20;15.57;;;18.30;99.90;;;;;;5031290;28;20091;-72
2022/06/26 01:37:33;;;;;;;18.15;16.35;;;18.40;99.90;;;;;;5032145;28;20037;-73
2022/06/26 01:39:59;;;;;;;18.67;15.93;;;19.40;99.90;;;;;;5033397;28;20711;-72
2022/06/26 01:42:24;;;;;;;16.85;15.25;;;18.40;99.90;;;;;;5033405;28;20243;-72
2022/06/26 01:44:50;;;;;;;17.30;15.75;;;21.10;99.90;;;;;;5033205;28;20028;-72
2022/06/26 01:47:15;;;;;;;18.17;16.60;;;18.30;99.90;;;;;;5033036;28;20025;-72
2022/06/26 01:49:41;;;;;;;17.13;15.68;;;18.40;99.90;;;;;;5032770;28;20034;-72
2022/06/26 01:52:07;;;;;;;17.75;16.15;;;18.30;99.90;;;;;;5032959;28;20025;-72
2022/06/26 01:54:32;;;;;;;19.58;17.77;;;18.30;99.90;;;;;;5033710;28;20037;-72
2022/06/26 01:56:58;;;;;;;18.83;17.23;;;18.30;99.90;;;;;;5033138;28;20079;-72
2022/06/26 01:59:23;;;;;;;18.80;16.98;;;18.40;99.90;;;;;;5032887;28;20053;-72
2022/06/26 02:01:49;;;;;;;16.55;14.85;;;18.40;99.90;;;;;;5032657;28;20037;-72
2022/06/26 02:04:16;;;;;;;15.55;14.15;;;18.30;99.90;;;;;;5032074;28;20028;-72
2022/06/26 02:06:43;;;;;;;15.95;14.38;;;18.30;99.90;;;;;;5032829;28;20077;-72
2022/06/26 02:13:35;;;;;;;15.60;14.02;;;18.40;99.90;;;;;;5032678;28;20038;-73
2022/06/26 02:14:38;;;;;;;16.60;14.95;;;18.30;99.90;;;;;;5033168;28;20095;-72
2022/06/26 02:17:03;;;;;;;16.92;15.38;;;18.30;99.90;;;;;;5032093;28;20470;-72
2022/06/26 02:19:29;;;;;;;16.42;15.00;;;18.20;99.90;;;;;;5032131;28;20063;-72
2022/06/26 02:21:54;;;;;;;16.13;14.63;;;18.20;99.90;;;;;;5032072;28;20096;-72
2022/06/26 02:24:20;;;;;;;16.08;14.60;;;16.60;99.90;;;;;;5031936;28;20092;-72
2022/06/26 02:26:45;;;;;;;14.70;13.40;;;18.20;99.90;;;;;;5032653;28;20462;-72
2022/06/26 02:29:11;;;;;;;14.18;12.80;;;18.10;99.90;;;;;;5032241;28;20029;-73
2022/06/26 02:31:36;;;;;;;13.95;12.63;;;18.10;99.90;;;;;;5032092;28;20021;-72
2022/06/26 02:34:02;;;;;;;12.93;11.80;;;18.00;99.90;;;;;;5032182;28;20112;-72
2022/06/26 02:36:28;;;;;;;13.82;12.52;;;18.00;99.90;;;;;;5032338;28;20040;-72
2022/06/26 02:38:53;;;;;;;13.27;11.88;;;17.90;99.90;;;;;;5032066;28;20479;-72
2022/06/26 02:41:18;;;;;;;12.60;11.57;;;18.00;99.90;;;;;;5031959;28;20018;-73
2022/06/26 02:43:47;;;;;;;11.40;10.40;;;18.00;99.90;;;;;;5032527;28;20062;-72
2022/06/26 02:46:13;;;;;;;12.52;11.40;;;17.90;99.90;;;;;;5031421;28;20025;-72
2022/06/26 02:48:38;;;;;;;12.63;11.57;;;18.00;99.90;;;;;;5032188;28;20026;-72
2022/06/26 02:51:04;;;;;;;11.38;10.25;;;18.80;99.90;;;;;;5031662;28;20029;-72
2022/06/26 02:53:29;;;;;;;13.20;12.00;;;17.80;99.90;;;;;;5031941;28;20017;-72
2022/06/26 02:55:55;;;;;;;12.95;11.82;;;17.90;99.90;;;;;;5032095;28;20374;-72
2022/06/26 02:58:21;;;;;;;15.48;12.88;;;18.50;99.90;;;;;;5030320;28;20712;-72
2022/06/26 03:00:47;;;;;;;14.98;12.93;;;18.20;99.90;;;;;;5031564;28;20550;-72
2022/06/26 03:03:12;;;;;;;14.27;12.95;;;17.90;99.90;;;;;;5030874;28;20128;-71
2022/06/26 03:05:38;;;;;;;15.23;13.88;;;17.80;99.90;;;;;;5031983;28;20122;-72
2022/06/26 03:08:04;;;;;;;16.83;15.30;;;19.30;99.90;;;;;;5031288;28;20140;-72
2022/06/26 03:10:29;;;;;;;16.77;15.10;;;17.70;99.90;;;;;;5031736;28;20106;-72
2022/06/26 03:12:55;;;;;;;16.17;14.57;;;17.70;99.90;;;;;;5031976;28;20036;-72
2022/06/26 03:15:20;;;;;;;16.20;14.55;;;17.60;99.90;;;;;;5031065;28;20029;-72
2022/06/26 03:17:46;;;;;;;16.27;14.68;;;17.60;99.90;;;;;;5018314;28;20045;-72
2022/06/26 03:20:16;;;;;;;18.48;16.70;;;17.40;99.90;;;;;;5031275;28;20470;-72
2022/06/26 03:22:42;;;;;;;18.23;16.42;;;19.00;99.90;;;;;;5031237;28;20028;-72
2022/06/26 03:25:08;;;;;;;18.20;16.38;;;17.70;99.90;;;;;;5031147;28;20053;-72
2022/06/26 03:27:36;;;;;;;17.20;15.57;;;17.70;99.90;;;;;;5031421;28;20546;-72
2022/06/26 03:30:03;;;;;;;18.20;16.42;;;17.70;99.90;;;;;;5029295;28;20030;-72
2022/06/26 03:32:28;;;;;;;18.75;16.88;;;17.60;99.90;;;;;;5030807;28;20083;-72
2022/06/26 03:34:54;;;;;;;20.90;18.75;;;17.60;99.90;;;;;;5031437;28;20041;-72
2022/06/26 03:37:20;;;;;;;16.30;14.70;;;17.70;99.90;;;;;;5030723;28;20042;-72
2022/06/26 03:39:45;;;;;;;17.85;16.05;;;17.70;99.90;;;;;;5031373;28;20029;-72
2022/06/26 03:42:11;;;;;;;17.75;16.00;;;17.70;99.90;;;;;;5030831;28;20025;-72
2022/06/26 03:44:36;;;;;;;19.35;17.60;;;17.70;99.90;;;;;;5030797;28;20017;-72
2022/06/26 03:47:02;;;;;;;18.25;16.52;;;17.70;99.90;;;;;;5030984;28;20052;-72
2022/06/26 03:49:28;;;;;;;23.67;19.40;;;17.70;99.90;;;;;;5030104;28;20076;-72
2022/06/26 03:51:53;;;;;;;19.65;17.67;;;17.70;99.90;;;;;;5030847;28;20025;-72
2022/06/26 03:54:19;;;;;;;21.50;18.17;;;17.60;99.90;;;;;;5030473;28;20080;-72
2022/06/26 03:56:46;;;;;;;17.65;15.80;;;18.60;99.90;;;;;;5030762;28;20033;-72
2022/06/26 03:59:11;;;;;;;21.45;17.42;;;17.70;99.90;;;;;;5029721;28;20022;-72
2022/06/26 04:01:37;;;;;;;19.45;17.42;;;17.50;99.90;;;;;;5030732;28;20048;-72
2022/06/26 04:04:02;;;;;;;19.10;17.00;;;17.50;99.90;;;;;;5030572;28;20482;-72
2022/06/26 04:06:28;;;;;;;22.02;16.80;;;17.60;99.90;;;;;;5029451;28;20053;-72
2022/06/26 04:08:54;;;;;;;19.88;16.90;;;17.50;99.90;;;;;;5030841;28;20018;-72
2022/06/26 04:11:19;;;;;;;19.10;17.10;;;17.60;99.90;;;;;;5030288;28;20021;-72
2022/06/26 04:13:45;;;;;;;20.33;17.60;;;17.60;99.90;;;;;;5030296;28;20398;-73
2022/06/26 04:16:10;;;;;;;19.35;17.35;;;17.60;99.90;;;;;;5028921;28;20031;-72
2022/06/26 04:18:36;;;;;;;17.52;15.75;;;17.60;99.90;;;;;;5030823;28;20060;-72
2022/06/26 04:21:02;;;;;;;20.17;17.50;;;17.60;99.90;;;;;;5029971;28;20538;-72
2022/06/26 04:23:28;;;;;;;23.65;20.15;;;17.60;99.90;;;;;;5030343;28;20031;-72
2022/06/26 04:25:53;;;;;;;23.58;18.90;;;17.30;99.90;;;;;;5030510;28;20104;-72
2022/06/26 04:28:19;;;;;;;24.35;18.33;;;17.60;99.90;;;;;;5029526;28;20049;-72
2022/06/26 04:30:44;;;;;;;20.20;16.55;;;17.40;99.90;;;;;;5026680;28;20029;-72
2022/06/26 04:33:10;;;;;;;21.90;18.73;;;17.40;99.90;;;;;;5028270;28;20033;-72
2022/06/26 04:35:35;;;;;;;23.60;19.85;;;17.20;99.90;;;;;;5030233;28;20030;-72
2022/06/26 04:38:02;;;;;;;22.90;19.90;;;17.40;99.90;;;;;;5029791;28;20061;-72
2022/06/26 04:40:29;;;;;;;25.17;19.08;;;14.40;99.90;;;;;;5029986;28;20017;-72
2022/06/26 04:42:55;;;;;;;24.50;19.88;;;17.30;99.90;;;;;;5030051;28;20069;-72
2022/06/26 04:45:21;;;;;;;20.30;18.17;;;17.20;99.90;;;;;;5029676;28;20013;-72
2022/06/26 04:47:47;;;;;;;22.67;19.83;;;17.10;99.90;;;;;;5030143;28;20485;-72
2022/06/26 04:50:12;;;;;;;23.23;19.65;;;17.00;99.90;;;;;;5028048;28;20017;-72
2022/06/26 04:52:38;;;;;;;24.02;19.35;;;17.00;99.90;;;;;;5030143;28;20025;-72
2022/06/26 04:55:04;;;;;;;21.08;18.90;;;17.00;99.90;;;;;;5029484;28;20509;-71
2022/06/26 04:57:30;;;;;;;23.70;18.67;;;17.00;99.90;;;;;;5028643;28;20128;-72
2022/06/26 04:59:55;;;;;;;20.88;17.92;;;17.00;99.90;;;;;;5029685;28;20172;-72
2022/06/26 05:02:21;;;;;;;19.35;16.90;;;16.80;99.90;;;;;;5028434;28;20032;-72
2022/06/26 05:04:47;;;;;;;20.33;16.92;;;16.90;99.90;;;;;;5028889;28;20029;-72
2022/06/26 05:07:12;;;;;;;21.65;17.83;;;17.00;99.90;;;;;;5019297;28;20042;-72
2022/06/26 05:09:38;;;;;;;22.23;17.17;;;17.00;99.90;;;;;;5026426;28;20025;-71
2022/06/26 05:12:04;;;;;;;21.05;18.30;;;16.90;99.90;;;;;;5028160;28;20053;-72
2022/06/26 05:14:29;;;;;;;21.30;17.73;;;17.00;99.90;;;;;;5029316;28;20049;-72
2022/06/26 05:16:55;;;;;;;18.23;16.35;;;16.90;99.90;;;;;;5029567;28;20123;-72
2022/06/26 05:19:20;;;;;;;21.15;17.05;;;17.00;99.90;;;;;;5028667;28;20018;-72
2022/06/26 05:21:46;;;;;;;19.45;17.38;;;17.10;99.90;;;;;;5029724;28;20029;-71
2022/06/26 05:24:11;;;;;;;19.08;16.92;;;16.80;99.90;;;;;;5029039;28;20418;-72
2022/06/26 05:26:39;;;;;;;19.83;17.83;;;16.90;99.90;;;;;;5029091;28;20421;-73
2022/06/26 05:29:05;;;;;;;21.83;17.95;;;17.10;99.90;;;;;;5029146;28;20025;-72
2022/06/26 05:31:30;;;;;;;20.95;17.77;;;16.90;99.90;;;;;;5028944;28;20036;-72
2022/06/26 05:33:56;;;;;;;21.75;19.45;;;17.00;99.90;;;;;;5029506;28;20042;-71
2022/06/26 05:36:21;;;;;;;21.70;18.92;;;17.10;99.90;;;;;;5028844;28;20029;-71
2022/06/26 05:38:47;;;;;;;22.27;18.23;;;17.20;99.90;;;;;;5029482;28;20051;-72
2022/06/26 05:41:12;;;;;;;19.38;17.05;;;17.20;99.90;;;;;;5027321;28;20037;-71
2022/06/26 05:43:38;;;;;;;19.75;17.67;;;17.00;99.90;;;;;;5029687;28;20703;-72
2022/06/26 05:46:03;;;;;;;21.15;17.98;;;17.30;99.90;;;;;;5028000;28;20053;-72
2022/06/26 05:48:29;;;;;;;18.13;16.20;;;17.30;99.90;;;;;;5029253;28;20033;-72
2022/06/26 05:50:55;;;;;;;17.40;14.25;;;17.40;99.90;;;;;;5029497;28;20063;-72
2022/06/26 05:53:24;;;;;;;16.65;14.90;;;17.50;99.90;;;;;;5028773;28;20025;-72
2022/06/26 05:55:50;;;;;;;19.33;15.57;;;15.50;99.90;;;;;;5029070;28;20034;-72
2022/06/26 05:58:16;;;;;;;17.23;14.77;;;17.50;99.90;;;;;;5028769;28;20033;-72
2022/06/26 06:00:42;;;;;;;18.73;15.75;;;17.50;99.90;;;;;;5028965;28;20391;-72
2022/06/26 06:03:08;;;;;;;19.70;14.10;;;17.50;99.90;;;;;;5029031;28;20033;-72
2022/06/26 06:05:34;;;;;;;19.58;15.50;;;17.60;99.90;;;;;;5029070;28;20398;-72
2022/06/26 06:08:02;;;;;;;20.77;15.88;;;17.30;99.90;;;;;;5028641;28;20115;-72
2022/06/26 06:10:28;;;;;;;16.85;15.00;;;17.70;99.90;;;;;;5028674;28;20383;-72
2022/06/26 06:12:54;;;;;;;18.17;13.68;;;17.90;99.90;;;;;;5030414;28;20542;-72
2022/06/26 06:15:21;;;;;;;16.40;14.63;;;17.90;99.90;;;;;;5029423;28;20108;-72
2022/06/26 06:17:47;;;;;;;17.10;15.13;;;17.90;99.90;;;;;;5028863;28;20072;-72
2022/06/26 06:20:13;;;;;;;14.27;12.82;;;17.90;99.90;;;;;;5032277;28;20060;-71
2022/06/26 06:22:41;;;;;;;15.88;13.13;;;17.80;99.90;;;;;;5032541;28;20487;-72
2022/06/26 06:25:07;;;;;;;15.52;13.65;;;17.90;99.90;;;;;;5031762;28;20017;-72
2022/06/26 06:27:33;;;;;;;14.02;12.63;;;17.90;99.90;;;;;;5032507;28;20475;-72
2022/06/26 06:29:58;;;;;;;13.40;11.98;;;18.00;99.90;;;;;;5032220;28;20022;-71
2022/06/26 06:32:24;;;;;;;14.77;13.30;;;18.00;99.90;;;;;;5032318;28;20029;-72
2022/06/26 06:34:50;;;;;;;13.95;12.45;;;18.10;99.90;;;;;;5032529;28;20033;-72
2022/06/26 06:37:15;;;;;;;14.10;12.65;;;18.20;99.90;;;;;;5032005;28;20539;-72
2022/06/26 06:39:41;;;;;;;15.75;14.10;;;18.20;99.90;;;;;;5030855;28;20512;-72
2022/06/26 06:42:06;;;;;;;14.88;13.48;;;18.40;99.90;;;;;;5031613;28;20060;-72
2022/06/26 06:44:32;;;;;;;14.13;12.63;;;18.20;99.90;;;;;;5031988;28;20436;-72
2022/06/26 06:46:58;;;;;;;11.85;10.65;;;18.50;99.90;;;;;;5031961;28;20079;-72
2022/06/26 06:49:23;;;;;;;13.73;11.18;;;18.50;99.90;;;;;;5031507;28;20104;-72
2022/06/26 06:51:49;;;;;;;12.18;11.00;;;18.40;99.90;;;;;;5032085;28;20033;-72
2022/06/26 06:54:14;;;;;;;12.18;11.07;;;18.60;99.90;;;;;;5031197;28;20521;-72
2022/06/26 06:56:40;;;;;;;14.90;11.70;;;18.70;99.90;;;;;;5031804;28;20045;-72
2022/06/26 06:59:05;;;;;;;10.95;9.77;;;19.10;99.90;;;;;;5026490;28;20037;-72
2022/06/26 07:01:31;;;;;;;9.30;8.38;;;19.20;99.90;;;;;;5031817;28;20478;-72
2022/06/26 07:03:56;;;;;;;7.88;7.05;;;19.10;99.90;;;;;;5031918;28;20374;-72
2022/06/26 07:06:22;;;;;;;7.63;6.93;;;19.10;99.90;;;;;;5031259;28;20088;-73
2022/06/26 07:08:47;;;;;;;8.23;7.47;;;19.20;99.90;;;;;;5031567;28;20100;-72
2022/06/26 07:11:13;;;;;;;12.90;7.07;;;19.30;99.90;;;;;;5031166;28;20025;-72
2022/06/26 07:13:39;;;;;;;7.47;6.78;;;19.40;99.90;;;;;;5029767;28;20605;-72
2022/06/26 07:16:05;;;;;;;7.63;6.53;;;19.50;99.90;;;;;;5030965;28;20024;-72
2022/06/26 07:18:30;;;;;;;7.28;6.57;;;19.60;99.90;;;;;;5029979;28;20529;-76
2022/06/26 07:20:56;;;;;;;6.60;5.90;;;20.60;99.90;;;;;;5030474;28;20029;-77
2022/06/26 07:23:22;;;;;;;11.85;6.40;;;19.80;99.90;;;;;;5030343;28;20508;-76
2022/06/26 07:25:47;;;;;;;7.53;6.22;;;19.90;99.90;;;;;;5030420;28;20027;-76
2022/06/26 07:28:13;;;;;;;7.47;5.85;;;19.90;99.90;;;;;;5030442;28;20428;-76
2022/06/26 07:30:39;;;;;;;6.32;5.15;;;20.40;99.90;;;;;;5031309;28;20386;-76
2022/06/26 07:35:52;;;;;;;7.05;5.18;;;20.20;99.90;;;;;;5031322;28;20087;-77
2022/06/26 07:38:18;;;;;;;5.95;4.90;;;20.30;99.90;;;;;;5030518;28;20080;-77
2022/06/26 07:40:43;;;;;;;5.93;5.18;;;20.30;99.90;;;;;;5029981;28;20026;-77
2022/06/26 07:43:09;;;;;;;7.05;5.38;;;20.50;99.90;;;;;;5029950;28;20076;-77
2022/06/26 07:45:35;;;;;;;5.28;4.18;;;20.70;99.90;;;;;;5031256;28;20520;-77
2022/06/26 07:48:00;;;;;;;4.72;3.47;;;20.80;99.90;;;;;;5025994;28;20030;-77
2022/06/26 07:50:26;;;;;;;5.60;4.10;;;21.00;99.90;;;;;;5030547;28;20057;-77
2022/06/26 07:52:51;;;;;;;6.50;5.20;;;21.30;99.90;;;;;;5030864;28;20390;-76
2022/06/26 07:55:17;;;;;;;3.97;3.58;;;21.20;99.90;;;;;;5030639;28;20780;-77
2022/06/26 07:57:43;;;;;;;4.22;3.10;;;21.80;99.90;;;;;;5030618;28;20464;-76
2022/06/26 08:00:09;;;;;;;5.50;3.95;;;21.50;99.90;;;;;;5030090;28;20014;-76
2022/06/26 08:02:35;;;;;;;5.90;3.75;;;21.50;99.90;;;;;;5030934;28;20033;-76
2022/06/26 08:05:00;;;;;;;3.00;2.70;;;21.50;99.90;;;;;;5029861;28;20025;-76
2022/06/26 08:07:26;;;;;;;8.43;4.22;;;21.50;99.90;;;;;;5030245;28;20045;-76
2022/06/26 08:09:51;;;;;;;3.35;3.05;;;21.30;99.90;;;;;;5030846;28;20037;-76
2022/06/26 08:12:17;;;;;;;3.95;3.22;;;21.40;99.90;;;;;;5030377;28;20021;-76
2022/06/26 08:14:42;;;;;;;3.10;2.47;;;21.50;99.90;;;;;;5033312;28;20095;-77
2022/06/26 08:17:08;;;;;;;3.97;2.65;;;22.20;99.90;;;;;;5030023;28;20544;-74
2022/06/26 08:19:34;;;;;;;4.53;3.05;;;21.50;99.90;;;;;;5030359;28;20032;-74
2022/06/26 08:22:02;;;;;;;6.75;3.95;;;21.70;99.90;;;;;;5030321;28;20030;-74
2022/06/26 08:24:29;;;;;;;5.82;4.10;;;21.60;99.50;;;;;;5029518;28;20529;-74
2022/06/26 08:26:54;;;;;;;4.10;3.80;;;23.30;99.90;;;;;;5030799;28;20029;-74
2022/06/26 08:29:20;;;;;;;4.57;3.10;;;21.50;99.70;;;;;;5029807;28;20033;-74
2022/06/26 08:31:46;;;;;;;6.25;4.30;;;21.50;99.90;;;;;;5030661;28;20022;-74
2022/06/26 08:34:11;;;;;;;4.13;3.60;;;21.50;99.70;;;;;;5029467;28;20032;-73
2022/06/26 08:36:38;;;;;;;4.70;3.95;;;21.40;99.80;;;;;;5029981;28;20037;-74
2022/06/26 08:39:05;;;;;;;4.85;3.72;;;21.40;99.90;;;;;;5029893;28;20029;-73
2022/06/26 08:41:39;;;;;;;4.05;3.65;;;21.40;99.90;;;;;;5030024;28;20474;-73
2022/06/26 08:44:05;;;;;;;4.68;3.42;;;21.30;99.90;;;;;;5030042;28;20047;-74
2022/06/26 08:46:39;;;;;;;8.00;4.22;;;21.20;99.90;;;;;;5030188;28;20037;-74
2022/06/26 08:49:09;;;;;;;5.35;4.65;;;21.40;99.50;;;;;;5028524;28;20032;-73
2022/06/26 08:51:40;;;;;;;4.47;4.07;;;21.40;99.90;;;;;;5030178;28;20018;-74
2022/06/26 08:54:06;;;;;;;3.13;2.92;;;21.40;99.20;;;;;;5029560;28;20017;-74
2022/06/26 08:56:33;;;;;;;6.28;3.28;;;21.40;99.50;;;;;;5030136;28;20022;-74
2022/06/26 08:58:59;;;;;;;5.75;3.38;;;21.60;99.20;;;;;;5025895;28;20048;-73
2022/06/26 09:01:24;;;;;;;6.32;3.72;;;21.70;98.90;;;;;;5021265;28;20479;-75
2022/06/26 09:03:50;;;;;;;3.65;3.10;;;21.80;98.90;;;;;;5029429;28;20029;-74
2022/06/26 09:06:15;;;;;;;6.47;3.70;;;21.90;98.70;;;;;;5029163;28;20045;-74
2022/06/26 09:08:45;;;;;;;5.97;4.03;;;22.00;98.50;;;;;;5029896;28;20036;-74
2022/06/26 09:11:11;;;;;;;3.55;2.90;;;22.00;98.60;;;;;;5029340;28;20026;-74
2022/06/26 09:13:40;;;;;;;6.63;3.45;;;22.10;98.20;;;;;;5029968;28;20044;-74
2022/06/26 09:16:05;;;;;;;5.10;3.88;;;22.20;98.20;;;;;;5029586;28;20025;-74
2022/06/26 09:18:36;;;;;;;4.15;3.75;;;23.50;98.30;;;;;;5028208;28;20379;-73
2022/06/26 09:21:04;;;;;;;4.28;3.30;;;23.00;98.40;;;;;;5028077;28;20021;-72
2022/06/26 09:23:35;;;;;;;6.18;4.05;;;22.20;98.00;;;;;;5028499;28;20018;-72
2022/06/26 09:26:01;;;;;;;7.07;3.83;;;22.10;97.50;;;;;;5028084;28;20033;-72
2022/06/26 09:28:27;;;;;;;6.55;3.47;;;22.00;98.20;;;;;;5028343;28;20021;-72
2022/06/26 09:30:53;;;;;;;4.70;2.85;;;22.10;98.10;;;;;;5028866;28;20368;-73
2022/06/26 09:33:20;;;;;;;4.85;3.63;;;22.00;97.90;;;;;;5025876;28;20075;-71
2022/06/26 09:35:46;;;;;;;4.03;2.70;;;22.10;98.20;;;;;;5028319;28;20029;-72
2022/06/26 09:38:19;;;;;;;4.25;2.72;;;22.10;98.10;;;;;;5027874;28;20045;-74
2022/06/26 09:40:50;;;;;;;3.53;2.42;;;22.20;97.40;;;;;;5028526;28;20470;-74
2022/06/26 09:43:28;;;;;;;5.18;2.70;;;22.30;97.90;;;;;;5028073;28;20025;-75
2022/06/26 09:45:55;;;;;;;4.32;3.10;;;22.20;96.70;;;;;;5028742;28;20530;-72
2022/06/26 09:48:23;;;;;;;5.50;3.30;;;20.50;96.40;;;;;;5027752;28;20479;-72
2022/06/26 09:50:50;;;;;;;5.15;3.03;;;22.20;97.50;;;;;;5031148;28;20036;-72
2022/06/26 09:53:16;;;;;;;6.13;3.10;;;22.20;97.40;;;;;;5028534;28;20082;-73
2022/06/26 09:55:42;;;;;;;4.93;3.47;;;22.30;97.50;;;;;;5031116;28;20030;-72
2022/06/26 09:58:09;;;;;;;6.55;3.80;;;22.60;97.30;;;;;;5031298;28;20045;-73
2022/06/26 10:00:35;;;;;;;7.70;4.10;;;22.30;97.20;;;;;;5031804;28;20053;-73
2022/06/26 10:08:35;;;;;;;5.45;3.17;;;22.30;96.10;;;;;;5032790;28;20091;-74
2022/06/26 10:11:03;;;;;;;4.78;2.72;;;22.40;96.90;;;;;;5032780;28;20030;-76
2022/06/26 10:13:33;;;;;;;3.13;2.50;;;22.60;96.70;;;;;;5032560;28;20024;-75
2022/06/26 10:16:38;;;;;;;4.45;2.72;;;22.60;96.50;;;;;;5032470;28;20028;-76
2022/06/26 10:19:33;;;;;;;8.35;3.28;;;22.70;95.70;;;;;;5029079;28;20044;-74
2022/06/26 10:21:59;;;;;;;5.05;3.05;;;22.60;96.30;;;;;;5016714;28;20041;-74
2022/06/26 10:24:25;;;;;;;4.32;3.10;;;22.50;95.90;;;;;;5032542;28;20029;-75
2022/06/26 10:26:57;;;;;;;5.72;4.05;;;22.40;95.90;;;;;;5032700;28;20021;-75
2022/06/26 10:30:13;;;;;;;6.63;3.70;;;22.50;96.30;;;;;;5031811;28;20029;-74
2022/06/26 10:32:39;;;;;;;4.60;4.10;;;22.60;95.90;;;;;;4973771;28;20042;-75
2022/06/26 10:35:06;;;;;;;6.95;4.45;;;22.50;96.30;;;;;;4989375;28;20030;-75
2022/06/26 10:37:43;;;;;;;8.57;4.40;;;22.60;96.40;;;;;;4989702;28;20686;-75
2022/06/26 10:43:15;;;;;;;5.90;4.35;;;23.50;97.20;;;;;;4991372;28;20041;-75
2022/06/26 10:45:41;;;;;;;6.30;5.07;;;22.30;96.90;;;;;;4989645;28;20030;-75
2022/06/26 10:48:18;;;;;;;8.95;4.30;;;22.40;96.70;;;;;;4990100;28;20269;-75
2022/06/26 10:50:45;;;;;;;8.30;5.15;;;22.70;97.10;;;;;;4990659;28;20061;-73
2022/06/26 10:53:24;;;;;;;5.35;3.85;;;22.40;96.70;;;;;;4991496;28;20030;-76
2022/06/26 10:55:56;;;;;;;7.65;3.88;;;22.40;97.00;;;;;;4989373;28;20115;-74
2022/06/26 10:58:27;;;;;;;5.22;4.03;;;22.70;96.70;;;;;;4989543;28;20093;-73
2022/06/26 11:00:56;;;;;;;7.05;4.63;;;22.80;96.30;;;;;;4990199;28;20046;-72
2022/06/26 11:03:22;;;;;;;6.07;4.28;;;23.20;96.20;;;;;;4989809;28;20026;-73
2022/06/26 11:05:54;;;;;;;8.75;5.15;;;23.00;95.80;;;;;;4988884;28;20789;-73
2022/06/26 11:08:33;;;;;;;7.00;3.95;;;23.10;96.00;;;;;;5016437;28;20490;-73
2022/06/26 11:11:05;;;;;;;6.22;3.90;;;23.10;95.10;;;;;;5031779;28;20013;-73
2022/06/26 11:13:32;;;;;;;8.57;4.40;;;23.10;94.60;;;;;;5030989;28;20060;-74
2022/06/26 11:15:57;;;;;;;6.80;3.90;;;23.30;95.20;;;;;;5031864;28;20026;-73
2022/06/26 11:18:23;;;;;;;5.90;3.28;;;23.30;95.00;;;;;;5031295;28;20036;-73
2022/06/26 11:20:51;;;;;;;4.85;3.53;;;24.30;95.00;;;;;;5030329;28;20490;-73
2022/06/26 11:23:22;;;;;;;3.80;2.40;;;23.40;94.90;;;;;;5031066;28;20028;-73
2022/06/26 11:25:49;;;;;;;3.75;2.25;;;23.40;93.90;;;;;;5030055;28;20022;-73
2022/06/26 11:28:16;;;;;;;3.88;2.13;;;23.60;94.40;;;;;;5030850;28;20430;-73
2022/06/26 11:30:44;;;;;;;5.55;1.75;;;23.60;94.50;;;;;;5031589;28;20025;-73
2022/06/26 11:33:10;;;;;;;4.85;2.08;;;23.70;93.90;;;;;;5031006;28;20025;-73
2022/06/26 11:35:37;;;;;;;3.85;1.65;;;23.70;93.80;;;;;;5024531;28;20088;-73
2022/06/26 11:38:10;;;;;;;4.20;2.20;;;23.60;93.70;;;;;;5030924;28;20113;-74
2022/06/26 11:40:36;;;;;;;5.10;2.28;;;23.60;93.90;;;;;;5031392;28;20053;-73
2022/06/26 11:43:02;;;;;;;4.57;2.85;;;23.40;93.80;;;;;;5030413;28;20052;-73
2022/06/26 11:45:31;;;;;;;4.05;2.42;;;23.30;94.10;;;;;;5030987;28;20017;-73
2022/06/26 11:47:57;;;;;;;7.82;2.83;;;23.20;94.40;;;;;;5030475;28;20451;-74
2022/06/26 11:50:27;;;;;;;6.68;3.40;;;23.20;94.20;;;;;;5029653;28;20021;-73
2022/06/26 11:52:54;;;;;;;3.78;2.83;;;23.30;94.40;;;;;;5029503;28;20087;-73
2022/06/26 11:55:20;;;;;;;5.47;2.80;;;23.20;94.50;;;;;;5028248;28;20068;-74
2022/06/26 11:57:46;;;;;;;6.18;3.90;;;23.30;94.30;;;;;;5024614;28;20029;-73
2022/06/26 12:00:19;;;;;;;8.07;3.20;;;24.70;94.60;;;;;;5028674;28;20056;-74
2022/06/26 12:02:48;;;;;;;5.95;3.53;;;25.30;95.30;;;;;;5029667;28;20502;-74
2022/06/26 12:05:23;;;;;;;4.57;2.13;;;23.30;94.80;;;;;;5028959;28;20044;-73
2022/06/26 12:07:50;;;;;;;6.00;2.53;;;23.10;93.70;;;;;;5029666;28;20054;-72
2022/06/26 12:10:36;;;;;;;3.63;2.72;;;23.10;94.50;;;;;;5028398;28;20439;-72
2022/06/26 12:13:02;;;;;;;6.05;2.28;;;23.00;93.90;;;;;;5028713;28;20041;-72
2022/06/26 12:15:33;;;;;;;4.68;2.58;;;22.90;94.30;;;;;;5029625;28;20061;-73
2022/06/26 12:18:02;;;;;;;3.92;1.92;;;22.90;94.50;;;;;;5029730;28;20072;-72
2022/06/26 12:20:36;;;;;;;6.13;2.72;;;22.90;94.40;;;;;;5028099;28;20030;-73
2022/06/26 12:23:02;;;;;;;7.40;3.17;;;22.90;94.40;;;;;;5029227;28;20024;-73
2022/06/26 12:25:35;;;;;;;2.83;2.38;;;22.70;94.10;;;;;;5028691;28;20414;-72
2022/06/26 12:28:01;;;;;;;5.78;2.75;;;22.80;93.30;;;;;;5029155;28;20036;-72
2022/06/26 12:30:35;;;;;;;5.07;2.40;;;22.60;94.40;;;;;;5028091;28;20506;-72
2022/06/26 12:33:04;;;;;;;2.85;1.88;;;22.40;95.30;;;;;;5028761;28;20021;-72
2022/06/26 12:35:31;;;;;;;5.25;2.67;;;22.30;95.40;;;;;;5028875;28;20017;-72
2022/06/26 12:37:58;;;;;;;5.45;1.85;;;22.10;95.50;;;;;;5029155;28;20495;-72
2022/06/26 12:40:24;;;;;;;5.15;2.63;;;22.00;95.70;;;;;;5028409;28;20108;-72
2022/06/26 12:42:49;;;;;;;4.53;2.38;;;21.90;95.90;;;;;;5029103;28;20133;-72
2022/06/26 12:45:15;;;;;;;4.50;2.03;;;21.60;96.00;;;;;;5028266;28;20025;-72
2022/06/26 12:47:41;;;;;;;4.30;2.03;;;21.60;96.20;;;;;;5029041;28;20536;-72